| time (UTC) | temp F | wind direction | speed knots | gust knots | rain 1hr in | rain 24hr in | rain mn in | humidity % | barometer mb |
| 20260503185629 | 62 | 265 | 4.3 | 16.5 | 0.00 | 0.00 | 0.00 | 47 | 1014.5 |
| 20260503185128 | 61 | 65 | 5.2 | 16.5 | 0.00 | 0.00 | 0.00 | 40 | 1014.8 |
| 20260503184630 | 61 | 281 | 6.1 | 16.5 | 0.00 | 0.00 | 0.00 | 45 | 1014.8 |
| 20260503184124 | 61 | 248 | 5.2 | 13.0 | 0.00 | 0.00 | 0.00 | 43 | 1014.9 |
| 20260503183622 | 61 | 172 | 5.2 | 20.0 | 0.00 | 0.00 | 0.00 | 45 | 1015.1 |
| 20260503183122 | 61 | 246 | 6.1 | 20.0 | 0.00 | 0.00 | 0.00 | 39 | 1015.0 |
| 20260503182623 | 61 | 185 | 6.1 | 14.8 | 0.00 | 0.00 | 0.00 | 41 | 1015.1 |
| 20260503182122 | 61 | 207 | 6.1 | 14.8 | 0.00 | 0.00 | 0.00 | 43 | 1015.1 |
| 20260503181625 | 60 | 205 | 5.2 | 13.0 | 0.00 | 0.00 | 0.00 | 46 | 1015.2 |
| 20260503181119 | 60 | 164 | 5.2 | 13.0 | 0.00 | 0.00 | 0.00 | 46 | 1015.3 |
| 20260503180616 | 60 | 173 | 6.1 | 15.6 | 0.00 | 0.00 | 0.00 | 44 | 1015.5 |
| 20260503180116 | 60 | 198 | 5.2 | 15.6 | 0.00 | 0.00 | 0.00 | 42 | 1015.5 |
| 20260503175616 | 59 | 209 | 6.1 | 13.9 | 0.00 | 0.00 | 0.00 | 44 | 1015.7 |
| 20260503175116 | 59 | 164 | 6.1 | 15.6 | 0.00 | 0.00 | 0.00 | 43 | 1015.6 |
| 20260503174617 | 59 | 232 | 7.0 | 16.5 | 0.00 | 0.00 | 0.00 | 44 | 1015.7 |
| 20260503174111 | 59 | 163 | 6.1 | 16.5 | 0.00 | 0.00 | 0.00 | 43 | 1015.6 |
| 20260503173612 | 59 | 227 | 6.1 | 16.5 | 0.00 | 0.00 | 0.00 | 46 | 1015.8 |
| 20260503173113 | 59 | 255 | 6.1 | 16.5 | 0.00 | 0.00 | 0.00 | 45 | 1015.9 |
| 20260503172844 | 60 | 209 | 5.2 | 15.6 | 0.00 | 0.00 | 0.00 | 45 | 1015.9 |
| 20260503172112 | 60 | 249 | 5.2 | 15.6 | 0.00 | 0.00 | 0.00 | 45 | 1016.0 |
| 20260503171843 | 60 | 186 | 5.2 | 13.9 | 0.00 | 0.00 | 0.00 | 46 | 1016.0 |
| 20260503171114 | 60 | 216 | 6.1 | 14.8 | 0.00 | 0.00 | 0.00 | 49 | 1016.0 |
| 20260503170607 | 60 | 168 | 6.1 | 14.8 | 0.00 | 0.00 | 0.00 | 44 | 1016.2 |
| 20260503170337 | 60 | 238 | 5.2 | 11.3 | 0.00 | 0.00 | 0.00 | 50 | 1016.2 |
| 20260503150550 | 55 | 225 | 4.3 | 12.2 | 0.00 | 0.00 | 0.00 | 57 | 1017.2 |
| 20260503131026 | 46 | 245 | 3.5 | 9.6 | 0.00 | 0.00 | 0.00 | 71 | 1017.5 |
| 20260503130526 | 46 | 254 | 2.6 | 10.4 | 0.00 | 0.00 | 0.00 | 73 | 1017.5 |
| 20260503110506 | 32 | 250 | 0.9 | 3.5 | 0.00 | 0.00 | 0.00 | 93 | 1016.9 |
| 20260503110236 | 32 | 254 | 0.9 | 3.5 | 0.00 | 0.00 | 0.00 | 93 | 1016.9 |
| 20260503090438 | 31 | 315 | 0.0 | 0.0 | 0.00 | 0.00 | 0.00 | 92 | 1016.5 |
| 20260503081417 | 32 | 315 | 0.0 | 0.0 | 0.00 | 0.00 | 0.00 | 92 | 1016.4 |
| 20260503080916 | 32 | 315 | 0.0 | 0.0 | 0.00 | 0.00 | 0.00 | 91 | 1016.4 |
| 20260503080413 | 32 | 315 | 0.0 | 0.0 | 0.00 | 0.00 | 0.00 | 91 | 1016.4 |
| 20260503072900 | 33 | 315 | 0.0 | 0.0 | 0.00 | 0.00 | 0.00 | 91 | 1016.3 |
| 20260503072359 | 33 | 315 | 0.0 | 0.0 | 0.00 | 0.00 | 0.00 | 91 | 1016.3 |
| 20260503072353 | 33 | 315 | 0.0 | 0.0 | 0.00 | 0.00 | 0.00 | 91 | 1016.3 |
| 20260503071350 | 33 | 315 | 0.0 | 0.0 | 0.00 | 0.00 | 0.00 | 91 | 1016.4 |
| 20260503070847 | 33 | 315 | 0.0 | 0.0 | 0.00 | 0.00 | 0.00 | 91 | 1016.4 |
| 20260503070349 | 33 | 315 | 0.0 | 0.0 | 0.00 | 0.00 | 0.00 | 91 | 1016.4 |
| 20260503054825 | 33 | 316 | 0.0 | 0.0 | 0.00 | 0.00 | 0.00 | 90 | 1016.7 |
| 20260503054323 | 33 | 316 | 0.0 | 0.0 | 0.00 | 0.00 | 0.00 | 90 | 1016.8 |
| 20260503053824 | 33 | 316 | 0.0 | 0.0 | 0.00 | 0.00 | 0.00 | 90 | 1016.8 |
| 20260503053317 | 33 | 316 | 0.0 | 0.0 | 0.00 | 0.00 | 0.00 | 90 | 1016.8 |
| 20260503052816 | 33 | 316 | 0.0 | 0.0 | 0.00 | 0.00 | 0.00 | 90 | 1016.8 |
| 20260503052312 | 33 | 316 | 0.0 | 0.0 | 0.00 | 0.00 | 0.00 | 89 | 1016.8 |
| 20260503052043 | 33 | 316 | 0.0 | 0.0 | 0.00 | 0.00 | 0.00 | 89 | 1016.8 |
| 20260503051311 | 33 | 316 | 0.0 | 0.0 | 0.00 | 0.00 | 0.00 | 90 | 1016.8 |
| 20260503050806 | 33 | 316 | 0.0 | 0.0 | 0.00 | 0.00 | 0.00 | 89 | 1016.8 |
| 20260503050305 | 33 | 316 | 0.0 | 0.0 | 0.00 | 0.00 | 0.00 | 89 | 1016.8 |
| 20260503045801 | 33 | 317 | 0.0 | 0.0 | 0.00 | 0.00 | 0.00 | 89 | 1016.8 |
| 20260503045300 | 33 | 317 | 0.0 | 0.0 | 0.00 | 0.00 | 0.00 | 88 | 1016.9 |
| 20260503045031 | 33 | 317 | 0.0 | 0.0 | 0.00 | 0.00 | 0.00 | 88 | 1016.8 |
| 20260503044254 | 33 | 317 | 0.0 | 0.0 | 0.00 | 0.00 | 0.00 | 88 | 1016.8 |
| 20260503043751 | 33 | 317 | 0.0 | 0.0 | 0.00 | 0.00 | 0.00 | 88 | 1016.8 |
| 20260503043524 | 33 | 317 | 0.0 | 0.0 | 0.00 | 0.00 | 0.00 | 88 | 1016.8 |
| 20260503042752 | 33 | 317 | 0.0 | 0.0 | 0.00 | 0.00 | 0.00 | 88 | 1016.7 |
| 20260503042520 | 33 | 317 | 0.0 | 0.0 | 0.00 | 0.00 | 0.00 | 88 | 1016.7 |
| 20260503041750 | 33 | 317 | 0.0 | 0.0 | 0.00 | 0.00 | 0.00 | 88 | 1016.7 |
| 20260503041245 | 33 | 317 | 0.0 | 0.0 | 0.00 | 0.00 | 0.00 | 88 | 1016.7 |
| 20260503040745 | 33 | 317 | 0.0 | 0.0 | 0.00 | 0.00 | 0.00 | 87 | 1016.7 |
| 20260503040246 | 33 | 317 | 0.0 | 0.0 | 0.00 | 0.00 | 0.00 | 87 | 1016.7 |
| 20260503035746 | 33 | 317 | 0.0 | 0.0 | 0.00 | 0.00 | 0.00 | 86 | 1016.7 |
| 20260503035243 | 34 | 317 | 0.0 | 0.0 | 0.00 | 0.00 | 0.00 | 86 | 1016.7 |
| 20260503034742 | 34 | 317 | 0.0 | 0.0 | 0.00 | 0.00 | 0.00 | 86 | 1016.8 |
| 20260503034241 | 34 | 317 | 0.0 | 0.0 | 0.00 | 0.00 | 0.00 | 86 | 1016.8 |
| 20260503033746 | 34 | 317 | 0.0 | 0.0 | 0.00 | 0.00 | 0.00 | 86 | 1016.8 |
| 20260503033741 | 34 | 317 | 0.0 | 0.0 | 0.00 | 0.00 | 0.00 | 86 | 1016.7 |
| 20260503032739 | 34 | 317 | 0.0 | 0.0 | 0.00 | 0.00 | 0.00 | 85 | 1016.8 |
| 20260503032237 | 34 | 317 | 0.0 | 0.0 | 0.00 | 0.00 | 0.00 | 85 | 1016.8 |
| 20260503031739 | 35 | 317 | 0.0 | 0.0 | 0.00 | 0.00 | 0.00 | 85 | 1016.8 |
| 20260503031502 | 35 | 317 | 0.0 | 0.0 | 0.00 | 0.00 | 0.00 | 85 | 1016.8 |
| 20260503030730 | 35 | 317 | 0.0 | 0.0 | 0.00 | 0.00 | 0.00 | 84 | 1016.9 |
| 20260503030227 | 35 | 317 | 0.0 | 0.0 | 0.00 | 0.00 | 0.00 | 84 | 1016.9 |
| 20260503025956 | 35 | 317 | 0.0 | 0.0 | 0.00 | 0.00 | 0.00 | 83 | 1016.9 |
| 20260503025232 | 35 | 317 | 0.0 | 0.0 | 0.00 | 0.00 | 0.00 | 83 | 1017.0 |
| 20260503024719 | 35 | 317 | 0.0 | 0.0 | 0.00 | 0.00 | 0.00 | 83 | 1016.9 |
| 20260503024218 | 36 | 317 | 0.0 | 0.0 | 0.00 | 0.00 | 0.00 | 82 | 1016.9 |
| 20260503023719 | 36 | 317 | 0.0 | 0.0 | 0.00 | 0.00 | 0.00 | 82 | 1016.9 |
| 20260503023449 | 36 | 317 | 0.0 | 0.0 | 0.00 | 0.00 | 0.00 | 81 | 1017.0 |
| 20260503022948 | 36 | 317 | 0.0 | 0.0 | 0.00 | 0.00 | 0.00 | 81 | 1016.9 |
| 20260503022219 | 36 | 317 | 0.0 | 0.0 | 0.00 | 0.00 | 0.00 | 81 | 1016.9 |
| 20260503021710 | 36 | 317 | 0.0 | 0.0 | 0.00 | 0.00 | 0.00 | 80 | 1017.0 |
| 20260503021210 | 37 | 317 | 0.0 | 0.0 | 0.00 | 0.00 | 0.00 | 79 | 1017.0 |
| 20260503020938 | 37 | 317 | 0.0 | 0.0 | 0.00 | 0.00 | 0.00 | 79 | 1016.9 |
| 20260503020205 | 37 | 317 | 0.0 | 0.0 | 0.00 | 0.00 | 0.00 | 78 | 1017.0 |
| 20260503015706 | 38 | 317 | 0.0 | 0.0 | 0.00 | 0.00 | 0.00 | 77 | 1016.9 |
| 20260503015206 | 38 | 317 | 0.0 | 0.0 | 0.00 | 0.00 | 0.00 | 77 | 1016.9 |
| 20260503014704 | 38 | 317 | 0.0 | 0.0 | 0.00 | 0.00 | 0.00 | 76 | 1016.9 |
| 20260503014436 | 38 | 317 | 0.0 | 0.0 | 0.00 | 0.00 | 0.00 | 75 | 1016.9 |
| 20260503013706 | 39 | 317 | 0.0 | 0.0 | 0.00 | 0.00 | 0.00 | 74 | 1016.8 |
| 20260503013204 | 39 | 317 | 0.0 | 0.0 | 0.00 | 0.00 | 0.00 | 74 | 1016.8 |
| 20260503012701 | 39 | 317 | 0.0 | 0.0 | 0.00 | 0.00 | 0.00 | 71 | 1016.7 |
| 20260503012202 | 40 | 317 | 0.0 | 0.0 | 0.00 | 0.00 | 0.00 | 71 | 1016.7 |
| 20260503011700 | 40 | 317 | 0.0 | 0.0 | 0.00 | 0.00 | 0.00 | 70 | 1016.7 |
| 20260503011200 | 40 | 317 | 0.0 | 0.0 | 0.00 | 0.00 | 0.00 | 69 | 1016.6 |
| 20260503010701 | 41 | 317 | 0.0 | 0.0 | 0.00 | 0.00 | 0.00 | 69 | 1016.7 |
| 20260503010201 | 41 | 317 | 0.0 | 0.0 | 0.00 | 0.00 | 0.00 | 68 | 1016.6 |
| 20260503005659 | 42 | 317 | 0.0 | 0.0 | 0.00 | 0.00 | 0.00 | 67 | 1016.6 |
| 20260503005158 | 42 | 317 | 0.0 | 0.0 | 0.00 | 0.00 | 0.00 | 66 | 1016.5 |
| 20260503004656 | 42 | 317 | 0.0 | 0.0 | 0.00 | 0.00 | 0.00 | 66 | 1016.5 |
| 20260503004156 | 43 | 317 | 0.0 | 1.7 | 0.00 | 0.00 | 0.00 | 65 | 1016.5 |
| 20260503003658 | 43 | 317 | 0.0 | 2.6 | 0.00 | 0.00 | 0.00 | 65 | 1016.4 |
| 20260503003157 | 44 | 317 | 0.9 | 4.3 | 0.00 | 0.00 | 0.00 | 64 | 1016.4 |
| 20260503002654 | 44 | 320 | 1.7 | 5.2 | 0.00 | 0.00 | 0.00 | 63 | 1016.4 |
| 20260503002153 | 44 | 314 | 1.7 | 5.2 | 0.00 | 0.00 | 0.00 | 64 | 1016.5 |
| 20260503001655 | 45 | 286 | 1.7 | 4.3 | 0.00 | 0.00 | 0.00 | 63 | 1016.4 |
| 20260503001153 | 45 | 311 | 1.7 | 3.5 | 0.00 | 0.00 | 0.00 | 62 | 1016.3 |
| 20260503000923 | 45 | 333 | 1.7 | 6.1 | 0.00 | 0.00 | 0.00 | 63 | 1016.3 |
| 20260503000154 | 45 | 326 | 1.7 | 6.1 | 0.00 | 0.00 | 0.00 | 60 | 1016.4 |
| 20260502235648 | 45 | 340 | 1.7 | 7.0 | 0.00 | 0.00 | 0.00 | 59 | 1016.3 |
| 20260502235149 | 45 | 319 | 2.6 | 7.0 | 0.00 | 0.00 | 0.00 | 59 | 1016.3 |
| 20260502234651 | 45 | 350 | 2.6 | 6.1 | 0.00 | 0.00 | 0.00 | 58 | 1016.3 |
| 20260502234148 | 45 | 342 | 2.6 | 6.1 | 0.00 | 0.00 | 0.00 | 57 | 1016.3 |
| 20260502233649 | 45 | 349 | 1.7 | 6.1 | 0.00 | 0.00 | 0.00 | 59 | 1016.3 |
| 20260502233150 | 46 | 343 | 2.6 | 6.1 | 0.00 | 0.00 | 0.00 | 56 | 1016.3 |
| 20260502232650 | 46 | 319 | 2.6 | 7.0 | 0.00 | 0.00 | 0.00 | 56 | 1016.3 |
| 20260502232149 | 46 | 314 | 2.6 | 7.0 | 0.00 | 0.00 | 0.00 | 58 | 1016.3 |
| 20260502231920 | 46 | 296 | 2.6 | 7.0 | 0.00 | 0.00 | 0.00 | 55 | 1016.2 |
| 20260502231149 | 46 | 310 | 2.6 | 6.1 | 0.00 | 0.00 | 0.00 | 54 | 1016.3 |
| 20260502230644 | 46 | 5 | 1.7 | 6.1 | 0.00 | 0.00 | 0.00 | 57 | 1016.3 |
| 20260502230143 | 46 | 349 | 1.7 | 7.0 | 0.00 | 0.00 | 0.00 | 56 | 1016.3 |
| 20260502225644 | 46 | 302 | 2.6 | 7.0 | 0.00 | 0.00 | 0.00 | 55 | 1016.3 |
| 20260502225143 | 46 | 308 | 2.6 | 7.0 | 0.00 | 0.00 | 0.00 | 54 | 1016.3 |
| 20260502224642 | 46 | 319 | 2.6 | 7.0 | 0.00 | 0.00 | 0.00 | 54 | 1016.2 |
| 20260502224412 | 46 | 340 | 2.6 | 8.7 | 0.00 | 0.00 | 0.00 | 53 | 1016.2 |
| 20260502223641 | 46 | 325 | 2.6 | 8.7 | 0.00 | 0.00 | 0.00 | 55 | 1016.2 |
| 20260502223406 | 46 | 324 | 1.7 | 6.1 | 0.00 | 0.00 | 0.00 | 54 | 1016.2 |
| 20260502222632 | 47 | 355 | 2.6 | 7.8 | 0.00 | 0.00 | 0.00 | 53 | 1016.1 |
| 20260502222402 | 47 | 327 | 3.5 | 9.6 | 0.00 | 0.00 | 0.00 | 53 | 1016.2 |
| 20260502221631 | 47 | 320 | 3.5 | 9.6 | 0.00 | 0.00 | 0.00 | 53 | 1016.1 |
| 20260502221130 | 47 | 295 | 2.6 | 6.1 | 0.00 | 0.00 | 0.00 | 53 | 1016.1 |
| 20260502220902 | 47 | 355 | 2.6 | 7.0 | 0.00 | 0.00 | 0.00 | 52 | 1016.1 |
| 20260502220124 | 47 | 329 | 2.6 | 8.7 | 0.00 | 0.00 | 0.00 | 53 | 1016.0 |
| 20260502215624 | 47 | 314 | 2.6 | 8.7 | 0.00 | 0.00 | 0.00 | 52 | 1016.1 |
| 20260502215127 | 47 | 346 | 3.5 | 7.0 | 0.00 | 0.00 | 0.00 | 52 | 1016.0 |
| 20260502214626 | 47 | 0 | 2.6 | 8.7 | 0.00 | 0.00 | 0.00 | 52 | 1016.0 |
| 20260502214125 | 47 | 15 | 2.6 | 8.7 | 0.00 | 0.00 | 0.00 | 54 | 1016.0 |
| 20260502213625 | 47 | 292 | 3.5 | 9.6 | 0.00 | 0.00 | 0.00 | 53 | 1016.1 |
| 20260502213122 | 47 | 330 | 4.3 | 13.0 | 0.00 | 0.00 | 0.00 | 53 | 1016.0 |
| 20260502212624 | 47 | 355 | 4.3 | 13.0 | 0.00 | 0.00 | 0.00 | 53 | 1015.9 |
| 20260502212124 | 47 | 327 | 3.5 | 9.6 | 0.00 | 0.00 | 0.00 | 51 | 1015.9 |
| 20260502211622 | 47 | 5 | 3.5 | 9.6 | 0.00 | 0.00 | 0.00 | 54 | 1015.9 |
| 20260502211124 | 47 | 325 | 2.6 | 8.7 | 0.00 | 0.00 | 0.00 | 52 | 1015.8 |
| 20260502210623 | 47 | 331 | 3.5 | 8.7 | 0.00 | 0.00 | 0.00 | 52 | 1015.9 |
| 20260502210355 | 47 | 355 | 2.6 | 7.0 | 0.00 | 0.00 | 0.00 | 57 | 1015.9 |
| 20260502205619 | 47 | 302 | 3.5 | 12.2 | 0.00 | 0.00 | 0.00 | 52 | 1015.9 |
| 20260502205118 | 47 | 324 | 3.5 | 12.2 | 0.00 | 0.00 | 0.00 | 54 | 1015.9 |
| 20260502204620 | 48 | 5 | 3.5 | 9.6 | 0.00 | 0.00 | 0.00 | 55 | 1015.9 |
| 20260502204119 | 48 | 290 | 4.3 | 10.4 | 0.00 | 0.00 | 0.00 | 50 | 1015.8 |
| 20260502203618 | 48 | 245 | 4.3 | 13.0 | 0.00 | 0.00 | 0.00 | 51 | 1015.8 |
| 20260502203119 | 48 | 300 | 3.5 | 13.0 | 0.00 | 0.00 | 0.00 | 53 | 1015.8 |
| 20260502202620 | 48 | 20 | 3.5 | 10.4 | 0.00 | 0.00 | 0.00 | 54 | 1015.9 |
| 20260502202115 | 48 | 343 | 4.3 | 9.6 | 0.00 | 0.00 | 0.00 | 52 | 1016.0 |
| 20260502201844 | 48 | 310 | 3.5 | 9.6 | 0.00 | 0.00 | 0.00 | 51 | 1015.9 |
| 20260502201347 | 48 | 334 | 3.5 | 8.7 | 0.00 | 0.00 | 0.00 | 52 | 1016.0 |
| 20260502200614 | 48 | 355 | 3.5 | 8.7 | 0.00 | 0.00 | 0.00 | 49 | 1016.0 |
| 20260502200112 | 48 | 276 | 3.5 | 9.6 | 0.00 | 0.00 | 0.00 | 51 | 1016.0 |
| 20260502195845 | 48 | 345 | 3.5 | 9.6 | 0.00 | 0.00 | 0.00 | 49 | 1016.0 |
| 20260502195111 | 49 | 313 | 2.6 | 8.7 | 0.00 | 0.00 | 0.00 | 51 | 1016.0 |
| 20260502194608 | 49 | 327 | 3.5 | 10.4 | 0.00 | 0.00 | 0.00 | 51 | 1016.0 |
| 20260502194340 | 48 | 23 | 3.5 | 10.4 | 0.00 | 0.00 | 0.00 | 51 | 1016.1 |
| 20260502193839 | 49 | 345 | 3.5 | 11.3 | 0.00 | 0.00 | 0.00 | 49 | 1016.1 |
| 20260502193337 | 49 | 317 | 3.5 | 11.3 | 0.00 | 0.00 | 0.00 | 54 | 1016.2 |
| 20260502192608 | 49 | 321 | 3.5 | 11.3 | 0.00 | 0.00 | 0.00 | 54 | 1016.2 |
| 20260502192100 | 48 | 16 | 3.5 | 11.3 | 0.00 | 0.00 | 0.00 | 53 | 1016.3 |
| 20260502191600 | 48 | 355 | 3.5 | 8.7 | 0.00 | 0.00 | 0.00 | 50 | 1016.3 |
| 20260502191100 | 48 | 19 | 3.5 | 8.7 | 0.00 | 0.00 | 0.00 | 57 | 1016.4 |
| 20260502190559 | 48 | 330 | 3.5 | 7.0 | 0.00 | 0.00 | 0.00 | 50 | 1016.3 |
| 20260502190100 | 47 | 290 | 4.3 | 9.6 | 0.00 | 0.00 | 0.00 | 50 | 1016.4 |